sensor_id;sensor_type;location;lat;lon;timestamp;pressure;altitude;pressure_sealevel;temperature;humidity
54900;BME280;40801;41.924;25.562;2023-04-06T00:01:01;99283.28;;;4.93;55.92
54900;BME280;40801;41.924;25.562;2023-04-06T00:03:27;99287.56;;;4.84;56.62
54900;BME280;40801;41.924;25.562;2023-04-06T00:05:52;99284.91;;;4.74;57.20
54900;BME280;40801;41.924;25.562;2023-04-06T00:08:18;99284.63;;;4.80;56.67
54900;BME280;40801;41.924;25.562;2023-04-06T00:10:43;99279.78;;;4.87;56.31
54900;BME280;40801;41.924;25.562;2023-04-06T00:13:09;99275.81;;;4.75;56.74
54900;BME280;40801;41.924;25.562;2023-04-06T00:15:35;99274.72;;;4.86;56.22
54900;BME280;40801;41.924;25.562;2023-04-06T00:18:02;99273.91;;;4.85;56.39
54900;BME280;40801;41.924;25.562;2023-04-06T00:20:27;99263.25;;;4.80;56.63
54900;BME280;40801;41.924;25.562;2023-04-06T00:22:53;99265.94;;;4.75;57.03
54900;BME280;40801;41.924;25.562;2023-04-06T00:25:19;99263.53;;;4.79;56.84
54900;BME280;40801;41.924;25.562;2023-04-06T00:27:45;99263.00;;;4.77;56.58
54900;BME280;40801;41.924;25.562;2023-04-06T00:30:10;99257.63;;;4.82;56.45
54900;BME280;40801;41.924;25.562;2023-04-06T00:32:36;99255.47;;;4.89;56.57
54900;BME280;40801;41.924;25.562;2023-04-06T00:35:02;99257.63;;;4.92;56.17
54900;BME280;40801;41.924;25.562;2023-04-06T00:37:28;99249.59;;;4.87;56.43
54900;BME280;40801;41.924;25.562;2023-04-06T00:39:53;99244.28;;;4.82;56.26
54900;BME280;40801;41.924;25.562;2023-04-06T00:42:20;99250.69;;;4.81;56.22
54900;BME280;40801;41.924;25.562;2023-04-06T00:44:58;99244.84;;;4.69;57.46
54900;BME280;40801;41.924;25.562;2023-04-06T00:47:25;99235.47;;;4.81;56.64
54900;BME280;40801;41.924;25.562;2023-04-06T00:49:52;99236.81;;;4.79;56.46
54900;BME280;40801;41.924;25.562;2023-04-06T00:52:18;99236.56;;;4.70;56.88
54900;BME280;40801;41.924;25.562;2023-04-06T00:54:43;99238.16;;;4.71;56.52
54900;BME280;40801;41.924;25.562;2023-04-06T00:57:11;99238.72;;;4.68;56.59
54900;BME280;40801;41.924;25.562;2023-04-06T00:59:37;99224.81;;;4.66;56.73
54900;BME280;40801;41.924;25.562;2023-04-06T01:02:03;99237.88;;;4.62;56.70
54900;BME280;40801;41.924;25.562;2023-04-06T01:04:29;99228.00;;;4.58;57.00
54900;BME280;40801;41.924;25.562;2023-04-06T01:06:54;99232.00;;;4.60;56.66
54900;BME280;40801;41.924;25.562;2023-04-06T01:09:19;99241.88;;;4.80;56.08
54900;BME280;40801;41.924;25.562;2023-04-06T01:11:46;99232.25;;;4.84;56.29
54900;BME280;40801;41.924;25.562;2023-04-06T01:14:11;99226.63;;;4.96;55.79
54900;BME280;40801;41.924;25.562;2023-04-06T01:16:37;99231.63;;;5.13;55.38
54900;BME280;40801;41.924;25.562;2023-04-06T01:19:09;99228.97;;;5.13;54.59
54900;BME280;40801;41.924;25.562;2023-04-06T01:21:36;99220.66;;;5.19;54.61
54900;BME280;40801;41.924;25.562;2023-04-06T01:24:02;99219.00;;;5.34;54.05
54900;BME280;40801;41.924;25.562;2023-04-06T01:26:27;99225.22;;;5.24;54.19
54900;BME280;40801;41.924;25.562;2023-04-06T01:28:54;99222.97;;;5.41;54.09
54900;BME280;40801;41.924;25.562;2023-04-06T01:31:20;99217.56;;;5.56;53.39
54900;BME280;40801;41.924;25.562;2023-04-06T01:33:46;99219.19;;;5.52;53.75
54900;BME280;40801;41.924;25.562;2023-04-06T01:36:12;99224.22;;;5.64;53.38
54900;BME280;40801;41.924;25.562;2023-04-06T01:38:37;99221.56;;;5.59;53.23
54900;BME280;40801;41.924;25.562;2023-04-06T01:41:03;99216.34;;;5.78;52.77
54900;BME280;40801;41.924;25.562;2023-04-06T01:43:28;99208.88;;;5.75;52.65
54900;BME280;40801;41.924;25.562;2023-04-06T01:45:53;99218.50;;;5.76;52.66
54900;BME280;40801;41.924;25.562;2023-04-06T01:48:19;99217.16;;;5.83;52.98
54900;BME280;40801;41.924;25.562;2023-04-06T01:50:45;99215.28;;;5.84;52.48
54900;BME280;40801;41.924;25.562;2023-04-06T01:53:10;99209.97;;;5.79;53.48
54900;BME280;40801;41.924;25.562;2023-04-06T01:55:36;99209.69;;;5.80;52.68
54900;BME280;40801;41.924;25.562;2023-04-06T01:58:01;99198.47;;;5.73;52.65
54900;BME280;40801;41.924;25.562;2023-04-06T02:00:26;99203.41;;;5.56;53.03
54900;BME280;40801;41.924;25.562;2023-04-06T02:02:52;99206.06;;;5.56;52.11
54900;BME280;40801;41.924;25.562;2023-04-06T02:05:19;99204.47;;;5.55;52.18
54900;BME280;40801;41.924;25.562;2023-04-06T02:07:44;99202.63;;;5.45;52.52
54900;BME280;40801;41.924;25.562;2023-04-06T02:10:14;99198.88;;;5.46;52.16
54900;BME280;40801;41.924;25.562;2023-04-06T02:12:39;99195.31;;;5.66;51.86
54900;BME280;40801;41.924;25.562;2023-04-06T02:15:05;99184.72;;;5.51;52.56
54900;BME280;40801;41.924;25.562;2023-04-06T02:17:31;99193.88;;;5.35;52.84
54900;BME280;40801;41.924;25.562;2023-04-06T02:19:56;99189.25;;;5.50;52.36
54900;BME280;40801;41.924;25.562;2023-04-06T02:22:21;99197.88;;;5.37;52.82
54900;BME280;40801;41.924;25.562;2023-04-06T02:24:47;99196.75;;;5.43;52.82
54900;BME280;40801;41.924;25.562;2023-04-06T02:27:14;99196.78;;;5.38;52.68
54900;BME280;40801;41.924;25.562;2023-04-06T02:29:39;99182.63;;;5.38;52.59
54900;BME280;40801;41.924;25.562;2023-04-06T02:32:05;99191.13;;;5.45;52.51
54900;BME280;40801;41.924;25.562;2023-04-06T02:34:31;99190.38;;;5.39;52.25
54900;BME280;40801;41.924;25.562;2023-04-06T02:36:56;99192.78;;;5.36;52.28
54900;BME280;40801;41.924;25.562;2023-04-06T02:39:21;99188.47;;;5.45;51.84
54900;BME280;40801;41.924;25.562;2023-04-06T02:41:47;99191.13;;;5.45;51.94
54900;BME280;40801;41.924;25.562;2023-04-06T02:44:13;99195.00;;;5.23;52.30
54900;BME280;40801;41.924;25.562;2023-04-06T02:46:38;99197.66;;;5.28;52.41
54900;BME280;40801;41.924;25.562;2023-04-06T02:49:04;99200.84;;;5.31;52.69
54900;BME280;40801;41.924;25.562;2023-04-06T02:51:30;99196.50;;;5.40;52.20
54900;BME280;40801;41.924;25.562;2023-04-06T02:53:55;99204.22;;;5.46;51.47
54900;BME280;40801;41.924;25.562;2023-04-06T02:56:21;99193.41;;;5.22;52.05
54900;BME280;40801;41.924;25.562;2023-04-06T02:58:47;99178.03;;;5.43;51.81
54900;BME280;40801;41.924;25.562;2023-04-06T03:01:12;99181.84;;;5.32;52.34
54900;BME280;40801;41.924;25.562;2023-04-06T03:03:38;99180.03;;;5.22;52.37
54900;BME280;40801;41.924;25.562;2023-04-06T03:06:04;99184.84;;;5.20;52.31
54900;BME280;40801;41.924;25.562;2023-04-06T03:08:29;99178.97;;;5.23;52.43
54900;BME280;40801;41.924;25.562;2023-04-06T03:10:55;99193.94;;;5.24;52.59
54900;BME280;40801;41.924;25.562;2023-04-06T03:13:21;99193.41;;;5.22;52.54
54900;BME280;40801;41.924;25.562;2023-04-06T03:15:47;99193.41;;;5.22;52.27
54900;BME280;40801;41.924;25.562;2023-04-06T03:18:12;99183.00;;;5.11;52.56
54900;BME280;40801;41.924;25.562;2023-04-06T03:20:37;99187.78;;;5.24;52.35
54900;BME280;40801;41.924;25.562;2023-04-06T03:23:03;99193.94;;;5.24;52.12
54900;BME280;40801;41.924;25.562;2023-04-06T03:25:28;99189.75;;;4.98;52.39
54900;BME280;40801;41.924;25.562;2023-04-06T03:27:55;99191.25;;;5.24;52.26
54900;BME280;40801;41.924;25.562;2023-04-06T03:30:21;99200.06;;;5.25;51.97
54900;BME280;40801;41.924;25.562;2023-04-06T03:32:46;99197.22;;;5.01;52.58
54900;BME280;40801;41.924;25.562;2023-04-06T03:35:11;99206.50;;;5.14;52.83
54900;BME280;40801;41.924;25.562;2023-04-06T03:37:37;99201.69;;;5.16;52.38
54900;BME280;40801;41.924;25.562;2023-04-06T03:40:04;99204.38;;;5.16;52.58
54900;BME280;40801;41.924;25.562;2023-04-06T03:42:29;99203.81;;;5.19;52.80
54900;BME280;40801;41.924;25.562;2023-04-06T03:44:56;99202.75;;;5.15;52.65
54900;BME280;40801;41.924;25.562;2023-04-06T03:47:21;99200.19;;;4.94;53.63
54900;BME280;40801;41.924;25.562;2023-04-06T03:49:47;99197.69;;;5.13;52.98
54900;BME280;40801;41.924;25.562;2023-04-06T03:52:12;99188.41;;;5.01;53.07
54900;BME280;40801;41.924;25.562;2023-04-06T03:54:37;99195.03;;;5.13;52.93
54900;BME280;40801;41.924;25.562;2023-04-06T03:57:04;99196.16;;;4.87;53.54
54900;BME280;40801;41.924;25.562;2023-04-06T03:59:29;99187.34;;;4.96;53.52
54900;BME280;40801;41.924;25.562;2023-04-06T04:01:55;99198.03;;;4.96;53.17
54900;BME280;40801;41.924;25.562;2023-04-06T04:04:20;99189.78;;;4.93;53.78
54900;BME280;40801;41.924;25.562;2023-04-06T04:06:46;99191.13;;;4.80;53.78
54900;BME280;40801;41.924;25.562;2023-04-06T04:09:11;99186.59;;;4.76;53.47
54900;BME280;40801;41.924;25.562;2023-04-06T04:11:36;99204.72;;;4.89;53.76
54900;BME280;40801;41.924;25.562;2023-04-06T04:14:02;99202.06;;;4.94;53.38
54900;BME280;40801;41.924;25.562;2023-04-06T04:16:27;99195.63;;;4.90;53.43
54900;BME280;40801;41.924;25.562;2023-04-06T04:18:53;99204.38;;;5.11;52.96
54900;BME280;40801;41.924;25.562;2023-04-06T04:21:18;99201.75;;;5.01;53.22
54900;BME280;40801;41.924;25.562;2023-04-06T04:23:44;99195.59;;;5.05;53.06
54900;BME280;40801;41.924;25.562;2023-04-06T04:26:09;99206.00;;;5.12;53.15
54900;BME280;40801;41.924;25.562;2023-04-06T04:28:35;99213.44;;;5.25;53.07
54900;BME280;40801;41.924;25.562;2023-04-06T04:31:00;99199.06;;;5.06;53.20
54900;BME280;40801;41.924;25.562;2023-04-06T04:33:26;99205.94;;;5.27;53.08
54900;BME280;40801;41.924;25.562;2023-04-06T04:35:51;99203.34;;;5.07;53.33
54900;BME280;40801;41.924;25.562;2023-04-06T04:38:17;99206.75;;;5.27;52.98
54900;BME280;40801;41.924;25.562;2023-04-06T04:40:43;99206.19;;;5.31;53.18
54900;BME280;40801;41.924;25.562;2023-04-06T04:43:08;99186.44;;;5.16;53.36
54900;BME280;40801;41.924;25.562;2023-04-06T04:45:33;99204.00;;;5.38;52.88
54900;BME280;40801;41.924;25.562;2023-04-06T04:47:59;99206.16;;;5.36;53.21
54900;BME280;40801;41.924;25.562;2023-04-06T04:50:24;99202.09;;;5.43;53.13
54900;BME280;40801;41.924;25.562;2023-04-06T04:52:50;99202.56;;;5.60;53.17
54900;BME280;40801;41.924;25.562;2023-04-06T04:55:15;99197.69;;;5.68;52.64
54900;BME280;40801;41.924;25.562;2023-04-06T04:57:41;99205.78;;;5.57;52.16
54900;BME280;40801;41.924;25.562;2023-04-06T05:00:07;99203.84;;;5.68;52.54
54900;BME280;40801;41.924;25.562;2023-04-06T05:02:32;99203.59;;;5.65;52.78
54900;BME280;40801;41.924;25.562;2023-04-06T05:04:58;99205.44;;;5.69;52.98
54900;BME280;40801;41.924;25.562;2023-04-06T05:07:23;99196.38;;;5.65;52.48
54900;BME280;40801;41.924;25.562;2023-04-06T05:09:49;99197.34;;;5.84;52.38
54900;BME280;40801;41.924;25.562;2023-04-06T05:12:14;99190.06;;;5.95;52.54
54900;BME280;40801;41.924;25.562;2023-04-06T05:14:40;99190.25;;;6.04;52.42
54900;BME280;40801;41.924;25.562;2023-04-06T05:17:05;99187.16;;;6.26;51.78
54900;BME280;40801;41.924;25.562;2023-04-06T05:19:31;99189.13;;;6.15;51.96
54900;BME280;40801;41.924;25.562;2023-04-06T05:21:56;99192.25;;;6.22;52.41
54900;BME280;40801;41.924;25.562;2023-04-06T05:24:22;99188.38;;;6.38;52.10
54900;BME280;40801;41.924;25.562;2023-04-06T05:26:48;99194.22;;;6.45;51.71
54900;BME280;40801;41.924;25.562;2023-04-06T05:29:13;99194.38;;;6.54;51.74
54900;BME280;40801;41.924;25.562;2023-04-06T05:31:40;99189.13;;;6.44;52.12
54900;BME280;40801;41.924;25.562;2023-04-06T05:34:05;99195.34;;;6.39;52.21
54900;BME280;40801;41.924;25.562;2023-04-06T05:36:31;99194.75;;;6.71;51.25
54900;BME280;40801;41.924;25.562;2023-04-06T05:38:57;99189.22;;;6.87;51.54
54900;BME280;40801;41.924;25.562;2023-04-06T05:41:23;99196.88;;;6.74;51.38
54900;BME280;40801;41.924;25.562;2023-04-06T05:43:49;99206.34;;;6.91;51.69
54900;BME280;40801;41.924;25.562;2023-04-06T05:46:14;99195.25;;;7.02;50.80
54900;BME280;40801;41.924;25.562;2023-04-06T05:48:40;99193.81;;;7.10;50.49
54900;BME280;40801;41.924;25.562;2023-04-06T05:51:05;99184.22;;;7.04;50.61
54900;BME280;40801;41.924;25.562;2023-04-06T05:53:33;99191.25;;;7.00;50.79
54900;BME280;40801;41.924;25.562;2023-04-06T05:56:02;99192.09;;;6.95;50.98
54900;BME280;40801;41.924;25.562;2023-04-06T05:58:28;99191.91;;;7.10;50.29
54900;BME280;40801;41.924;25.562;2023-04-06T06:00:58;99186.91;;;7.04;51.06
54900;BME280;40801;41.924;25.562;2023-04-06T06:03:23;99186.09;;;7.03;50.89
54900;BME280;40801;41.924;25.562;2023-04-06T06:05:49;99188.66;;;6.90;51.26
54900;BME280;40801;41.924;25.562;2023-04-06T06:08:14;99188.50;;;6.81;51.36
54900;BME280;40801;41.924;25.562;2023-04-06T06:10:41;99181.22;;;6.58;51.40
54900;BME280;40801;41.924;25.562;2023-04-06T06:13:06;99194.03;;;6.90;51.28
54900;BME280;40801;41.924;25.562;2023-04-06T06:15:32;99180.09;;;6.88;51.13
54900;BME280;40801;41.924;25.562;2023-04-06T06:17:57;99185.41;;;6.93;51.18
54900;BME280;40801;41.924;25.562;2023-04-06T06:20:23;99181.94;;;6.92;50.89
54900;BME280;40801;41.924;25.562;2023-04-06T06:22:48;99183.53;;;6.93;50.32
54900;BME280;40801;41.924;25.562;2023-04-06T06:25:13;99193.75;;;6.62;51.22
54900;BME280;40801;41.924;25.562;2023-04-06T06:27:39;99201.16;;;6.75;51.09
54900;BME280;40801;41.924;25.562;2023-04-06T06:30:05;99204.06;;;7.03;50.88
54900;BME280;40801;41.924;25.562;2023-04-06T06:32:32;99200.41;;;7.18;51.35
54900;BME280;40801;41.924;25.562;2023-04-06T06:34:57;99196.63;;;7.80;50.52
54900;BME280;40801;41.924;25.562;2023-04-06T06:37:23;99191.69;;;8.06;49.58
54900;BME280;40801;41.924;25.562;2023-04-06T06:39:48;99193.94;;;8.50;49.68
54900;BME280;40801;41.924;25.562;2023-04-06T06:42:13;99194.91;;;9.00;47.85
54900;BME280;40801;41.924;25.562;2023-04-06T06:44:39;99188.25;;;9.25;47.69
54900;BME280;40801;41.924;25.562;2023-04-06T06:47:04;99182.69;;;9.94;47.15
54900;BME280;40801;41.924;25.562;2023-04-06T06:49:30;99201.41;;;10.35;44.73
54900;BME280;40801;41.924;25.562;2023-04-06T06:51:55;99205.06;;;10.39;44.43
54900;BME280;40801;41.924;25.562;2023-04-06T06:54:20;99179.94;;;10.52;42.53
54900;BME280;40801;41.924;25.562;2023-04-06T06:56:46;99186.59;;;10.86;42.41
54900;BME280;40801;41.924;25.562;2023-04-06T06:59:11;99188.28;;;11.04;41.81
54900;BME280;40801;41.924;25.562;2023-04-06T07:01:37;99187.59;;;11.47;41.16
54900;BME280;40801;41.924;25.562;2023-04-06T07:04:02;99184.63;;;11.83;41.35
54900;BME280;40801;41.924;25.562;2023-04-06T07:06:28;99186.72;;;12.03;39.86
54900;BME280;40801;41.924;25.562;2023-04-06T07:08:53;99191.09;;;12.43;39.15
54900;BME280;40801;41.924;25.562;2023-04-06T07:11:19;99190.16;;;12.47;40.25
54900;BME280;40801;41.924;25.562;2023-04-06T07:13:44;99197.16;;;12.39;39.68
54900;BME280;40801;41.924;25.562;2023-04-06T07:16:10;99197.34;;;12.08;38.99
54900;BME280;40801;41.924;25.562;2023-04-06T07:18:35;99197.03;;;12.27;38.38
54900;BME280;40801;41.924;25.562;2023-04-06T07:21:01;99190.97;;;12.94;38.43
54900;BME280;40801;41.924;25.562;2023-04-06T07:23:26;99204.06;;;13.30;37.23
54900;BME280;40801;41.924;25.562;2023-04-06T07:25:51;99204.13;;;13.43;37.20
54900;BME280;40801;41.924;25.562;2023-04-06T07:28:18;99188.28;;;13.32;36.97
54900;BME280;40801;41.924;25.562;2023-04-06T07:30:44;99193.06;;;13.77;35.13
54900;BME280;40801;41.924;25.562;2023-04-06T07:33:09;99200.91;;;13.49;36.47
54900;BME280;40801;41.924;25.562;2023-04-06T07:35:35;99186.41;;;13.75;35.24
54900;BME280;40801;41.924;25.562;2023-04-06T07:38:02;99184.28;;;14.01;35.99
54900;BME280;40801;41.924;25.562;2023-04-06T07:40:27;99188.84;;;13.88;36.04
54900;BME280;40801;41.924;25.562;2023-04-06T07:42:53;99195.97;;;13.51;35.48
54900;BME280;40801;41.924;25.562;2023-04-06T07:45:18;99182.63;;;14.42;35.45
54900;BME280;40801;41.924;25.562;2023-04-06T07:47:44;99183.75;;;13.87;35.16
54900;BME280;40801;41.924;25.562;2023-04-06T07:50:10;99178.31;;;14.74;34.25
54900;BME280;40801;41.924;25.562;2023-04-06T07:52:35;99172.50;;;14.18;35.19
54900;BME280;40801;41.924;25.562;2023-04-06T07:55:01;99167.53;;;14.53;34.61
54900;BME280;40801;41.924;25.562;2023-04-06T07:57:26;99154.47;;;14.79;35.45
54900;BME280;40801;41.924;25.562;2023-04-06T07:59:51;99164.31;;;15.21;34.23
54900;BME280;40801;41.924;25.562;2023-04-06T08:02:17;99159.88;;;15.28;33.32
54900;BME280;40801;41.924;25.562;2023-04-06T08:04:43;99158.88;;;15.97;32.54
54900;BME280;40801;41.924;25.562;2023-04-06T08:07:08;99155.16;;;15.13;33.88
54900;BME280;40801;41.924;25.562;2023-04-06T08:09:34;99159.22;;;15.96;32.63
54900;BME280;40801;41.924;25.562;2023-04-06T08:12:00;99152.91;;;16.35;32.67
54900;BME280;40801;41.924;25.562;2023-04-06T08:14:25;99148.88;;;16.45;32.70
54900;BME280;40801;41.924;25.562;2023-04-06T08:16:51;99154.41;;;16.33;32.93
54900;BME280;40801;41.924;25.562;2023-04-06T08:19:16;99149.22;;;16.87;32.29
54900;BME280;40801;41.924;25.562;2023-04-06T08:21:44;99141.63;;;16.65;31.75
54900;BME280;40801;41.924;25.562;2023-04-06T08:24:10;99142.81;;;17.30;31.27
54900;BME280;40801;41.924;25.562;2023-04-06T08:26:35;99139.91;;;16.88;31.10
54900;BME280;40801;41.924;25.562;2023-04-06T08:29:01;99139.00;;;17.00;30.84
54900;BME280;40801;41.924;25.562;2023-04-06T08:31:26;99140.78;;;17.08;31.47
54900;BME280;40801;41.924;25.562;2023-04-06T08:33:52;99137.97;;;16.89;31.33
54900;BME280;40801;41.924;25.562;2023-04-06T08:36:18;99134.53;;;16.76;30.56
54900;BME280;40801;41.924;25.562;2023-04-06T08:38:48;99134.03;;;17.37;31.21
54900;BME280;40801;41.924;25.562;2023-04-06T08:41:14;99130.47;;;17.52;30.61
54900;BME280;40801;41.924;25.562;2023-04-06T08:44:08;99135.56;;;17.54;30.10
54900;BME280;40801;41.924;25.562;2023-04-06T08:46:33;99134.53;;;17.08;31.05
54900;BME280;40801;41.924;25.562;2023-04-06T08:49:01;99133.09;;;18.03;30.50
54900;BME280;40801;41.924;25.562;2023-04-06T08:51:28;99121.69;;;18.82;30.61
54900;BME280;40801;41.924;25.562;2023-04-06T08:53:54;99132.19;;;19.06;29.59
54900;BME280;40801;41.924;25.562;2023-04-06T08:56:22;99142.25;;;18.34;28.34
54900;BME280;40801;41.924;25.562;2023-04-06T08:58:47;99130.28;;;18.61;29.62
54900;BME280;40801;41.924;25.562;2023-04-06T09:01:14;99118.69;;;19.17;29.47
54900;BME280;40801;41.924;25.562;2023-04-06T09:03:42;99119.34;;;19.93;28.92
54900;BME280;40801;41.924;25.562;2023-04-06T09:06:09;99114.63;;;19.60;28.02
54900;BME280;40801;41.924;25.562;2023-04-06T09:08:37;99119.09;;;18.93;29.32
54900;BME280;40801;41.924;25.562;2023-04-06T09:11:04;99112.78;;;19.68;29.17
54900;BME280;40801;41.924;25.562;2023-04-06T09:13:30;99109.13;;;19.57;28.75
54900;BME280;40801;41.924;25.562;2023-04-06T09:16:02;99105.66;;;20.30;27.52
54900;BME280;40801;41.924;25.562;2023-04-06T09:18:33;99114.06;;;19.21;27.67
54900;BME280;40801;41.924;25.562;2023-04-06T09:21:02;99101.16;;;19.74;28.90
54900;BME280;40801;41.924;25.562;2023-04-06T09:23:28;99110.28;;;19.89;26.11
54900;BME280;40801;41.924;25.562;2023-04-06T09:26:13;99106.25;;;19.76;26.97
54900;BME280;40801;41.924;25.562;2023-04-06T09:28:46;99100.78;;;20.50;26.61
54900;BME280;40801;41.924;25.562;2023-04-06T09:31:13;99092.34;;;20.69;26.72
54900;BME280;40801;41.924;25.562;2023-04-06T09:33:44;99097.88;;;20.32;27.11
54900;BME280;40801;41.924;25.562;2023-04-06T09:36:10;99090.88;;;20.38;26.86
54900;BME280;40801;41.924;25.562;2023-04-06T09:38:50;99086.75;;;20.18;27.45
54900;BME280;40801;41.924;25.562;2023-04-06T09:41:26;99096.03;;;19.73;26.53
54900;BME280;40801;41.924;25.562;2023-04-06T09:44:02;99081.31;;;19.85;26.84
54900;BME280;40801;41.924;25.562;2023-04-06T09:46:31;99084.91;;;20.70;26.05
54900;BME280;40801;41.924;25.562;2023-04-06T09:48:57;99080.13;;;21.11;26.28
54900;BME280;40801;41.924;25.562;2023-04-06T09:51:23;99068.41;;;20.22;26.51
54900;BME280;40801;41.924;25.562;2023-04-06T09:53:52;99073.72;;;20.04;26.60
54900;BME280;40801;41.924;25.562;2023-04-06T09:56:23;99072.00;;;19.93;27.12
54900;BME280;40801;41.924;25.562;2023-04-06T09:58:53;99063.25;;;20.14;26.71
54900;BME280;40801;41.924;25.562;2023-04-06T10:01:26;99065.19;;;19.76;27.68
54900;BME280;40801;41.924;25.562;2023-04-06T10:04:06;99064.66;;;19.97;27.08
54900;BME280;40801;41.924;25.562;2023-04-06T10:06:35;99072.44;;;20.76;27.38
54900;BME280;40801;41.924;25.562;2023-04-06T10:09:03;99069.88;;;20.13;26.68
54900;BME280;40801;41.924;25.562;2023-04-06T10:11:30;99067.22;;;19.23;27.38
54900;BME280;40801;41.924;25.562;2023-04-06T10:13:56;99064.03;;;18.91;28.39
54900;BME280;40801;41.924;25.562;2023-04-06T10:16:22;99066.72;;;19.13;27.80
54900;BME280;40801;41.924;25.562;2023-04-06T10:18:55;99066.06;;;19.24;27.56
54900;BME280;40801;41.924;25.562;2023-04-06T10:21:25;99067.47;;;18.84;28.87
54900;BME280;40801;41.924;25.562;2023-04-06T10:23:54;99069.06;;;18.62;28.92
54900;BME280;40801;41.924;25.562;2023-04-06T10:26:21;99066.13;;;18.51;29.08
54900;BME280;40801;41.924;25.562;2023-04-06T10:28:48;99064.50;;;18.70;29.05
54900;BME280;40801;41.924;25.562;2023-04-06T10:31:14;99068.84;;;18.74;28.60
54900;BME280;40801;41.924;25.562;2023-04-06T10:33:40;99056.66;;;18.68;28.04
54900;BME280;40801;41.924;25.562;2023-04-06T10:36:21;99052.53;;;18.55;27.89
54900;BME280;40801;41.924;25.562;2023-04-06T10:38:47;99052.41;;;17.83;28.54
54900;BME280;40801;41.924;25.562;2023-04-06T10:41:18;99048.47;;;18.00;29.25
54900;BME280;40801;41.924;25.562;2023-04-06T10:43:44;99045.75;;;18.68;29.04
54900;BME280;40801;41.924;25.562;2023-04-06T10:46:10;99043.84;;;18.49;28.96
54900;BME280;40801;41.924;25.562;2023-04-06T10:51:10;99039.41;;;18.87;28.33
54900;BME280;40801;41.924;25.562;2023-04-06T10:53:36;99045.28;;;18.89;28.84
54900;BME280;40801;41.924;25.562;2023-04-06T10:56:02;99041.22;;;19.06;28.59
54900;BME280;40801;41.924;25.562;2023-04-06T10:58:28;99032.78;;;19.48;28.30
54900;BME280;40801;41.924;25.562;2023-04-06T11:00:54;99038.94;;;19.68;27.77
54900;BME280;40801;41.924;25.562;2023-04-06T11:03:20;99036.44;;;18.73;28.53
54900;BME280;40801;41.924;25.562;2023-04-06T11:05:46;99032.00;;;19.17;27.54
54900;BME280;40801;41.924;25.562;2023-04-06T11:08:29;99034.13;;;19.01;27.81
54900;BME280;40801;41.924;25.562;2023-04-06T11:11:09;99017.97;;;19.49;26.84
54900;BME280;40801;41.924;25.562;2023-04-06T11:16:04;99019.84;;;18.13;27.80
54900;BME280;40801;41.924;25.562;2023-04-06T11:18:29;99018.94;;;18.05;28.04
54900;BME280;40801;41.924;25.562;2023-04-06T11:20:55;99005.78;;;19.43;27.97
54900;BME280;40801;41.924;25.562;2023-04-06T11:23:24;98998.72;;;20.13;27.21
54900;BME280;40801;41.924;25.562;2023-04-06T11:25:53;99001.69;;;20.96;27.30
54900;BME280;40801;41.924;25.562;2023-04-06T11:28:19;98997.44;;;22.28;25.66
54900;BME280;40801;41.924;25.562;2023-04-06T11:30:45;98993.53;;;22.40;23.37
54900;BME280;40801;41.924;25.562;2023-04-06T11:33:20;98989.22;;;22.28;22.64
54900;BME280;40801;41.924;25.562;2023-04-06T11:35:46;98991.19;;;22.28;24.92
54900;BME280;40801;41.924;25.562;2023-04-06T11:38:12;98993.28;;;23.46;23.61
54900;BME280;40801;41.924;25.562;2023-04-06T11:40:37;98987.84;;;23.32;23.45
54900;BME280;40801;41.924;25.562;2023-04-06T11:43:04;98976.09;;;23.98;23.13
54900;BME280;40801;41.924;25.562;2023-04-06T11:45:39;98978.97;;;23.80;22.17
54900;BME280;40801;41.924;25.562;2023-04-06T11:48:05;98990.34;;;22.84;23.43
54900;BME280;40801;41.924;25.562;2023-04-06T11:50:33;98992.50;;;21.32;25.39
54900;BME280;40801;41.924;25.562;2023-04-06T11:53:01;98994.69;;;21.06;25.66
54900;BME280;40801;41.924;25.562;2023-04-06T11:55:27;98998.59;;;21.04;25.64
54900;BME280;40801;41.924;25.562;2023-04-06T11:57:52;98989.25;;;21.13;26.15
54900;BME280;40801;41.924;25.562;2023-04-06T12:00:18;98982.00;;;20.25;26.55
54900;BME280;40801;41.924;25.562;2023-04-06T12:02:48;98985.13;;;19.49;27.32
54900;BME280;40801;41.924;25.562;2023-04-06T12:05:13;98982.53;;;19.60;27.09
54900;BME280;40801;41.924;25.562;2023-04-06T12:07:39;98982.53;;;18.96;27.67
54900;BME280;40801;41.924;25.562;2023-04-06T12:10:05;98986.47;;;18.72;27.70
54900;BME280;40801;41.924;25.562;2023-04-06T12:12:30;98986.91;;;18.74;28.32
54900;BME280;40801;41.924;25.562;2023-04-06T12:14:56;98980.94;;;18.95;27.78
54900;BME280;40801;41.924;25.562;2023-04-06T12:17:22;98975.78;;;19.16;28.07
54900;BME280;40801;41.924;25.562;2023-04-06T12:19:47;98971.00;;;19.10;27.72
54900;BME280;40801;41.924;25.562;2023-04-06T12:22:12;98974.41;;;19.03;28.52
54900;BME280;40801;41.924;25.562;2023-04-06T12:24:38;98966.75;;;18.82;28.56
54900;BME280;40801;41.924;25.562;2023-04-06T12:27:03;98962.19;;;18.94;28.82
54900;BME280;40801;41.924;25.562;2023-04-06T12:29:29;98963.38;;;18.66;28.86
54900;BME280;40801;41.924;25.562;2023-04-06T12:31:55;98963.88;;;18.49;29.19
54900;BME280;40801;41.924;25.562;2023-04-06T12:34:20;98965.56;;;18.57;29.11
54900;BME280;40801;41.924;25.562;2023-04-06T12:36:46;98958.53;;;18.56;29.34
54900;BME280;40801;41.924;25.562;2023-04-06T12:39:11;98961.28;;;19.12;28.90
54900;BME280;40801;41.924;25.562;2023-04-06T12:41:36;98951.53;;;19.86;28.41
54900;BME280;40801;41.924;25.562;2023-04-06T12:44:02;98946.81;;;20.82;27.38
54900;BME280;40801;41.924;25.562;2023-04-06T12:46:28;98937.72;;;21.64;26.66
54900;BME280;40801;41.924;25.562;2023-04-06T12:48:56;98941.69;;;22.24;25.27
54900;BME280;40801;41.924;25.562;2023-04-06T12:51:23;98937.34;;;22.55;25.04
54900;BME280;40801;41.924;25.562;2023-04-06T12:53:48;98937.78;;;22.14;25.39
54900;BME280;40801;41.924;25.562;2023-04-06T12:56:17;98930.25;;;22.68;24.36